KHMN/HMN METAR and TAF weather

Enter ICAO airport designator
Station Type Date Time Source
KHMN METAR 2019/04/18 09:58 UTC NOAA

KHMN 180958Z AUTO 34006KT 10SM CLR 07/05 A3004 RMK AO2 SLP145 T00650051 $


Station Type Date Time Source
KHMN Decoded METAR 2019/04/18 09:58 UTC NOAA

Holloman Air Force Base, NM, United States (KHMN) 32-51N 106-06W 1248M
Apr 18, 2019 - 05:58 AM EDT / 2019.04.18 0958 UTC
Wind: from the NNW (340 degrees) at 7 MPH (6 KT):0
Visibility: 10 mile(s):0
Sky conditions: clear
Temperature: 43.7 F (6.5 C)
Dew Point: 41.2 F (5.1 C)
Relative Humidity: 90%
Pressure (altimeter): 30.04 in. Hg (1017 hPa)
ob: KHMN 180958Z AUTO 34006KT 10SM CLR 07/05 A3004 RMK AO2 SLP145 T00650051
cycle: 10

Station Type Date Time Source
KHMN TAF 2019/04/18 09:03 UTC NOAA

TAF KHMN 180900Z 1809/1915 33009KT 9999 FEW100 QNH3002INS
BECMG 1817/1818 26012KT 9999 SKC QNH3013INS
BECMG 1900/1901 VRB06KT 9999 FEW250 QNH3009INS TX20/1823Z TN05/1813Z

Example: see airport list